createdAt,value
2018-03-31T00:00:32.083Z,2.30
2018-03-31T00:02:59.671Z,2.83
2018-03-31T00:05:26.744Z,2.80
2018-03-31T00:07:54.602Z,2.33
2018-03-31T00:10:21.813Z,2.20
2018-03-31T00:12:48.918Z,2.90
2018-03-31T00:15:16.751Z,2.47
2018-03-31T00:17:43.846Z,3.37
2018-03-31T00:20:11.682Z,2.27
2018-03-31T00:22:38.811Z,2.80
2018-03-31T00:25:05.875Z,2.23
2018-03-31T00:27:32.988Z,3.07
2018-03-31T00:30:00.057Z,2.13
2018-03-31T00:32:27.691Z,2.80
2018-03-31T00:34:54.758Z,2.73
2018-03-31T00:37:22.201Z,3.50
2018-03-31T00:39:50.140Z,3.00
2018-03-31T00:42:17.215Z,3.73
2018-03-31T00:44:45.064Z,2.80
2018-03-31T00:47:12.169Z,2.53
2018-03-31T00:49:39.263Z,5.97
2018-03-31T00:52:06.355Z,3.50
2018-03-31T00:54:33.466Z,4.70
2018-03-31T00:57:00.566Z,3.83
2018-03-31T00:59:27.658Z,4.27
2018-03-31T01:01:54.750Z,3.57
2018-03-31T01:04:22.279Z,3.90
2018-03-31T01:06:49.376Z,5.63
2018-03-31T01:09:16.466Z,3.77
2018-03-31T01:11:44.042Z,5.53
2018-03-31T01:14:11.139Z,4.53
2018-03-31T01:16:38.204Z,3.50
2018-03-31T01:19:05.290Z,4.63
2018-03-31T01:21:32.359Z,5.23
2018-03-31T01:23:59.426Z,4.03
2018-03-31T01:26:27.319Z,4.23
2018-03-31T01:28:54.455Z,4.37
2018-03-31T01:31:21.538Z,3.30
2018-03-31T01:33:48.611Z,3.93
2018-03-31T01:36:15.715Z,3.20
2018-03-31T01:38:42.780Z,3.80
2018-03-31T01:41:10.086Z,3.83
2018-03-31T01:43:37.166Z,3.77
2018-03-31T01:46:04.741Z,3.73
2018-03-31T01:48:33.451Z,5.00
2018-03-31T01:51:00.601Z,7.13
2018-03-31T01:53:27.687Z,4.43
2018-03-31T01:55:54.784Z,4.37
2018-03-31T01:58:21.883Z,6.37
2018-03-31T02:00:49.016Z,5.37
2018-03-31T02:03:16.591Z,4.57
2018-03-31T02:05:43.666Z,3.90
2018-03-31T02:08:10.745Z,4.03
2018-03-31T02:10:37.847Z,3.50
2018-03-31T02:13:04.922Z,3.50
2018-03-31T02:15:32.020Z,3.20
2018-03-31T02:17:59.624Z,3.50
2018-03-31T02:20:26.686Z,3.43
2018-03-31T02:22:53.762Z,3.23
2018-03-31T02:25:20.898Z,2.90
2018-03-31T02:27:47.966Z,3.00
2018-03-31T02:30:15.067Z,3.33
2018-03-31T02:32:42.143Z,3.20
2018-03-31T02:35:09.233Z,3.50
2018-03-31T02:37:36.302Z,3.43
2018-03-31T02:40:04.027Z,3.60
2018-03-31T02:42:31.162Z,3.80
2018-03-31T02:44:58.923Z,3.37
2018-03-31T02:47:26.771Z,3.33
2018-03-31T02:49:53.871Z,2.87
2018-03-31T02:52:20.958Z,3.73
2018-03-31T02:54:48.063Z,3.43
2018-03-31T02:57:15.137Z,3.50
2018-03-31T02:59:42.287Z,2.90
2018-03-31T03:02:09.395Z,4.87
2018-03-31T03:04:36.468Z,4.60
2018-03-31T03:07:04.481Z,3.23
2018-03-31T03:09:32.278Z,2.80
2018-03-31T03:11:59.343Z,2.60
2018-03-31T03:14:26.798Z,2.93
2018-03-31T03:16:53.867Z,2.37
2018-03-31T03:19:21.707Z,2.70
2018-03-31T03:21:48.835Z,2.50
2018-03-31T03:24:15.956Z,2.67
2018-03-31T03:26:43.022Z,2.17
2018-03-31T03:29:10.132Z,2.20
2018-03-31T03:31:37.219Z,2.30
2018-03-31T03:34:04.308Z,2.17
2018-03-31T03:36:31.412Z,2.27
2018-03-31T03:38:58.502Z,2.43
2018-03-31T03:41:25.591Z,2.43
2018-03-31T03:43:53.451Z,1.97
2018-03-31T03:46:20.559Z,2.30
2018-03-31T03:48:47.634Z,2.17
2018-03-31T03:51:14.727Z,1.93
2018-03-31T03:53:42.609Z,2.17
2018-03-31T03:56:09.691Z,1.73
2018-03-31T03:58:36.794Z,2.37
2018-03-31T04:01:03.859Z,2.20
2018-03-31T04:03:31.184Z,2.50
2018-03-31T04:05:58.481Z,1.90
2018-03-31T04:08:25.569Z,1.97
2018-03-31T04:10:52.645Z,1.90
2018-03-31T04:13:19.754Z,2.30
2018-03-31T04:15:46.824Z,1.80
2018-03-31T04:18:13.890Z,5.43
2018-03-31T04:20:40.982Z,2.97
2018-03-31T04:23:08.049Z,2.00
2018-03-31T04:25:35.381Z,2.47
2018-03-31T04:28:02.645Z,2.87
2018-03-31T04:30:29.706Z,3.20
2018-03-31T04:32:56.811Z,3.10
2018-03-31T04:35:24.687Z,2.90
2018-03-31T04:37:51.795Z,3.40
2018-03-31T04:40:18.879Z,3.00
2018-03-31T04:42:45.952Z,2.90
2018-03-31T04:45:13.819Z,3.17
2018-03-31T04:47:41.662Z,3.20
2018-03-31T04:50:08.766Z,3.40
2018-03-31T04:52:35.886Z,3.23
2018-03-31T04:55:02.974Z,3.20
2018-03-31T04:57:30.090Z,4.30
2018-03-31T04:59:57.932Z,3.50
2018-03-31T05:02:25.051Z,3.13
2018-03-31T05:04:52.147Z,3.60
2018-03-31T05:07:19.219Z,3.73
2018-03-31T05:09:46.307Z,3.43
2018-03-31T05:12:13.428Z,3.33
2018-03-31T05:14:41.259Z,4.67
2018-03-31T05:17:08.354Z,3.87
2018-03-31T05:19:36.214Z,4.07
2018-03-31T05:22:04.091Z,4.20
2018-03-31T05:24:31.938Z,4.37
2018-03-31T05:26:59.053Z,4.67
2018-03-31T05:29:26.140Z,5.20
2018-03-31T05:31:53.275Z,5.37
2018-03-31T05:34:20.358Z,4.50
2018-03-31T05:36:48.219Z,6.80
2018-03-31T05:39:16.055Z,4.87
2018-03-31T05:41:43.162Z,5.87
2018-03-31T05:44:10.482Z,7.53
2018-03-31T05:46:37.589Z,5.77
2018-03-31T05:49:04.887Z,4.87
2018-03-31T05:51:31.958Z,6.47
2018-03-31T05:53:59.803Z,7.53
2018-03-31T05:56:27.487Z,5.97
2018-03-31T05:58:55.327Z,3.90
2018-03-31T06:01:22.405Z,4.27
2018-03-31T06:03:51.278Z,4.50
2018-03-31T06:06:18.338Z,5.27
2018-03-31T06:08:45.407Z,5.07
2018-03-31T06:11:13.285Z,4.53
2018-03-31T06:13:41.146Z,4.07
2018-03-31T06:16:08.983Z,3.80
2018-03-31T06:18:36.043Z,4.10
2018-03-31T06:21:03.164Z,3.73
2018-03-31T06:23:30.234Z,3.67
2018-03-31T06:25:57.312Z,5.10
2018-03-31T06:28:25.180Z,5.53
2018-03-31T06:30:52.252Z,3.40
2018-03-31T06:33:19.328Z,3.67
2018-03-31T06:35:46.441Z,3.03
2018-03-31T06:38:14.278Z,3.33
2018-03-31T06:40:42.367Z,4.07
2018-03-31T06:43:09.436Z,3.53
2018-03-31T06:45:36.508Z,4.90
2018-03-31T06:48:04.640Z,3.30
2018-03-31T06:50:31.708Z,3.23
2018-03-31T06:52:59.558Z,3.30
2018-03-31T06:55:26.714Z,3.80
2018-03-31T06:57:53.831Z,3.17
2018-03-31T07:00:20.905Z,2.87
2018-03-31T07:05:32.105Z,3.13
2018-03-31T07:08:08.703Z,2.83
2018-03-31T07:10:36.551Z,2.80
2018-03-31T07:13:04.301Z,3.27
2018-03-31T07:15:31.416Z,3.73
2018-03-31T07:17:58.458Z,2.70
2018-03-31T07:20:25.730Z,2.87
2018-03-31T07:22:52.801Z,2.20
2018-03-31T07:25:20.347Z,2.77
2018-03-31T07:27:47.418Z,3.70
2018-03-31T07:30:14.478Z,3.10
2018-03-31T07:32:42.307Z,2.53
2018-03-31T07:35:09.376Z,2.70
2018-03-31T07:37:36.474Z,3.10
2018-03-31T07:40:03.589Z,2.70
2018-03-31T07:42:31.280Z,2.40
2018-03-31T07:44:58.357Z,3.23
2018-03-31T07:47:25.440Z,4.53
2018-03-31T07:52:26.047Z,2.47
2018-03-31T07:54:53.181Z,2.80
2018-03-31T07:57:21.703Z,2.77
2018-03-31T07:59:48.786Z,2.23
2018-03-31T08:02:15.880Z,2.87
2018-03-31T08:04:43.010Z,2.57
2018-03-31T08:07:10.086Z,2.50
2018-03-31T08:09:37.180Z,2.17
2018-03-31T08:12:04.282Z,2.23
2018-03-31T08:14:31.858Z,2.40
2018-03-31T08:16:58.926Z,2.50
2018-03-31T08:19:26.755Z,2.50
2018-03-31T08:21:53.854Z,2.50
2018-03-31T08:24:21.572Z,1.87
2018-03-31T08:26:48.649Z,2.03
2018-03-31T08:29:15.789Z,1.70
2018-03-31T08:31:42.896Z,1.80
2018-03-31T08:34:10.160Z,1.70
2018-03-31T08:36:37.572Z,1.50
2018-03-31T08:39:06.646Z,2.17
2018-03-31T08:41:33.819Z,1.80
2018-03-31T08:44:01.702Z,1.50
2018-03-31T08:46:29.587Z,1.80
2018-03-31T08:48:56.674Z,1.53
2018-03-31T08:51:23.776Z,1.30
2018-03-31T08:53:50.847Z,2.03
2018-03-31T08:56:17.931Z,1.50
2018-03-31T08:58:45.039Z,1.40
2018-03-31T09:01:12.110Z,1.40
2018-03-31T09:03:39.638Z,1.70
2018-03-31T09:06:06.707Z,1.30
2018-03-31T09:08:33.773Z,1.20
2018-03-31T09:11:00.865Z,2.73
2018-03-31T09:13:27.952Z,1.50
2018-03-31T09:15:55.056Z,1.50
2018-03-31T09:18:22.126Z,1.63
2018-03-31T09:20:49.247Z,5.30
2018-03-31T09:23:16.372Z,1.67
2018-03-31T09:25:43.671Z,1.67
2018-03-31T09:28:10.795Z,1.73
2018-03-31T09:30:38.805Z,1.50
2018-03-31T09:33:06.586Z,1.40
2018-03-31T09:35:34.452Z,1.20
2018-03-31T09:38:02.346Z,1.83
2018-03-31T09:40:31.099Z,1.70
2018-03-31T09:42:58.199Z,1.40
2018-03-31T09:45:25.271Z,1.83
2018-03-31T09:47:52.367Z,1.97
2018-03-31T09:50:20.409Z,2.23
2018-03-31T09:52:47.478Z,1.70
2018-03-31T09:55:15.858Z,2.80
2018-03-31T09:57:42.926Z,2.00
2018-03-31T10:00:10.931Z,1.80
2018-03-31T10:02:38.056Z,1.90
2018-03-31T10:05:05.935Z,2.03
2018-03-31T10:07:33.026Z,2.13
2018-03-31T10:10:00.570Z,2.10
2018-03-31T10:12:27.675Z,2.50
2018-03-31T10:14:54.775Z,2.03
2018-03-31T10:17:22.714Z,2.00
2018-03-31T10:19:49.773Z,2.00
2018-03-31T10:22:16.879Z,1.80
2018-03-31T10:24:44.320Z,2.10
2018-03-31T10:27:11.553Z,1.97
2018-03-31T10:29:39.470Z,1.80
2018-03-31T10:32:06.767Z,1.90
2018-03-31T10:34:33.854Z,2.10
2018-03-31T10:37:01.450Z,1.90
2018-03-31T10:39:28.809Z,2.00
2018-03-31T10:41:55.899Z,2.20
2018-03-31T10:44:23.323Z,2.70
2018-03-31T10:46:50.400Z,3.70
2018-03-31T10:49:17.497Z,2.93
2018-03-31T10:51:44.616Z,2.53
2018-03-31T10:54:11.974Z,3.90
2018-03-31T10:56:39.614Z,2.87
2018-03-31T10:59:06.716Z,2.57
2018-03-31T11:01:33.795Z,2.90
2018-03-31T11:04:01.461Z,2.97
2018-03-31T11:06:29.316Z,2.77
2018-03-31T11:08:56.414Z,2.73
2018-03-31T11:11:23.514Z,2.60
2018-03-31T11:13:50.586Z,2.87
2018-03-31T11:16:17.671Z,3.23
2018-03-31T11:18:44.783Z,3.17
2018-03-31T11:21:11.858Z,3.20
2018-03-31T11:23:39.695Z,2.93
2018-03-31T11:26:07.170Z,3.03
2018-03-31T11:28:34.241Z,3.93
2018-03-31T11:31:02.089Z,3.00
2018-03-31T11:33:29.982Z,3.63
2018-03-31T11:35:57.834Z,3.20
2018-03-31T11:38:25.674Z,3.60
2018-03-31T11:40:53.352Z,3.80
2018-03-31T11:43:20.435Z,3.70
2018-03-31T11:45:47.507Z,3.80
2018-03-31T11:48:14.686Z,3.70
2018-03-31T11:50:41.774Z,3.40
2018-03-31T11:53:08.890Z,3.70
2018-03-31T11:55:35.952Z,3.77
2018-03-31T11:58:03.632Z,5.07
2018-03-31T12:00:30.788Z,3.97
2018-03-31T12:02:57.867Z,3.60
2018-03-31T12:05:24.968Z,3.70
2018-03-31T12:07:52.034Z,3.80
2018-03-31T12:10:19.183Z,4.33
2018-03-31T12:12:46.336Z,3.63
2018-03-31T12:15:13.417Z,3.93
2018-03-31T12:17:41.866Z,3.67
2018-03-31T12:20:08.944Z,3.57
2018-03-31T12:22:36.780Z,5.13
2018-03-31T12:25:04.423Z,3.67
2018-03-31T12:27:31.736Z,4.27
2018-03-31T12:29:59.606Z,3.87
2018-03-31T12:32:26.783Z,3.90
2018-03-31T12:34:53.904Z,3.73
2018-03-31T12:37:20.975Z,4.23
2018-03-31T12:39:48.920Z,5.03
2018-03-31T12:42:16.766Z,4.40
2018-03-31T12:44:43.885Z,4.37
2018-03-31T12:47:11.723Z,4.60
2018-03-31T12:49:39.568Z,4.50
2018-03-31T12:52:06.658Z,4.23
2018-03-31T12:54:33.762Z,4.50
2018-03-31T12:57:00.826Z,4.87
2018-03-31T12:59:27.958Z,5.07
2018-03-31T13:01:55.037Z,5.20
2018-03-31T13:04:22.906Z,5.30
2018-03-31T13:06:50.745Z,6.27
2018-03-31T13:09:18.352Z,5.53
2018-03-31T13:11:45.455Z,6.47
2018-03-31T13:14:12.557Z,6.77
2018-03-31T13:16:39.631Z,5.93
2018-03-31T13:19:06.764Z,6.63
2018-03-31T13:21:33.875Z,4.87
2018-03-31T13:24:00.960Z,5.40
2018-03-31T13:26:28.088Z,5.77
2018-03-31T13:28:55.417Z,5.97
2018-03-31T13:31:22.505Z,6.33
2018-03-31T13:33:50.901Z,10.07
2018-03-31T13:36:17.999Z,6.10
2018-03-31T13:38:45.103Z,6.17
2018-03-31T13:41:12.219Z,6.10
2018-03-31T13:43:39.284Z,7.27
2018-03-31T13:46:07.153Z,6.00
2018-03-31T13:48:34.241Z,7.30
2018-03-31T13:51:01.303Z,7.13
2018-03-31T13:53:28.418Z,6.33
2018-03-31T13:55:56.257Z,8.20
2018-03-31T13:58:24.079Z,5.83
2018-03-31T14:00:51.171Z,5.63
2018-03-31T14:03:18.254Z,6.57
2018-03-31T14:05:45.927Z,6.13
2018-03-31T14:08:13.801Z,6.97
2018-03-31T14:10:40.940Z,6.17
2018-03-31T14:13:09.412Z,7.33
2018-03-31T14:15:36.524Z,6.27
2018-03-31T14:18:03.587Z,5.83
2018-03-31T14:20:30.723Z,5.90
2018-03-31T14:22:57.799Z,6.67
2018-03-31T14:25:24.863Z,7.47
2018-03-31T14:27:52.008Z,6.80
2018-03-31T14:30:19.079Z,6.90
2018-03-31T14:32:46.178Z,5.57
2018-03-31T14:35:13.246Z,8.50
2018-03-31T14:37:40.381Z,6.87
2018-03-31T14:40:07.461Z,5.80
2018-03-31T14:42:34.544Z,7.37
2018-03-31T14:45:01.655Z,7.50
2018-03-31T14:47:29.335Z,5.63
2018-03-31T14:49:56.416Z,5.27
2018-03-31T14:52:24.260Z,5.67
2018-03-31T14:54:51.395Z,7.57
2018-03-31T14:57:18.491Z,5.30
2018-03-31T14:59:45.603Z,5.37
2018-03-31T15:02:12.707Z,5.47
2018-03-31T15:04:40.116Z,6.33
2018-03-31T15:07:07.217Z,6.73
2018-03-31T15:09:34.326Z,5.97
2018-03-31T15:12:02.224Z,5.67
2018-03-31T15:14:30.076Z,6.37
2018-03-31T15:16:57.926Z,6.57
2018-03-31T15:19:25.402Z,5.77
2018-03-31T15:21:53.251Z,5.40
2018-03-31T15:24:20.481Z,5.37
2018-03-31T15:26:47.578Z,5.27
2018-03-31T15:29:14.904Z,6.67
2018-03-31T15:31:42.788Z,8.13
2018-03-31T15:34:10.264Z,8.97
2018-03-31T15:36:37.350Z,5.63
2018-03-31T15:39:04.487Z,5.53
2018-03-31T15:41:32.422Z,8.73
2018-03-31T15:43:59.505Z,8.60
2018-03-31T15:46:26.748Z,7.70
2018-03-31T15:48:55.126Z,6.67
2018-03-31T15:51:22.216Z,5.63
2018-03-31T15:53:49.344Z,6.13
2018-03-31T15:56:17.299Z,5.07
2018-03-31T15:58:44.474Z,6.20
2018-03-31T16:01:12.469Z,7.07
2018-03-31T16:03:40.147Z,6.80
2018-03-31T16:06:07.277Z,5.90
2018-03-31T16:08:34.641Z,6.33
2018-03-31T16:11:02.333Z,5.23
2018-03-31T16:13:29.490Z,5.90
2018-03-31T16:15:56.592Z,5.73
2018-03-31T16:18:24.715Z,7.73
2018-03-31T16:20:51.867Z,5.47
2018-03-31T16:23:18.955Z,5.07
2018-03-31T16:25:46.041Z,4.97
2018-03-31T16:28:13.181Z,6.20
2018-03-31T16:30:40.281Z,5.57
2018-03-31T16:33:07.396Z,5.03
2018-03-31T16:35:34.493Z,5.60
2018-03-31T16:38:02.839Z,5.47
2018-03-31T16:40:29.934Z,7.63
2018-03-31T16:42:57.043Z,5.70
2018-03-31T16:45:24.178Z,6.47
2018-03-31T16:47:51.289Z,5.43
2018-03-31T16:50:18.439Z,5.00
2018-03-31T16:52:45.539Z,5.40
2018-03-31T16:55:12.637Z,4.93
2018-03-31T16:57:41.303Z,5.77
2018-03-31T17:00:08.487Z,4.60
2018-03-31T17:02:36.327Z,4.40
2018-03-31T17:05:04.159Z,6.27
2018-03-31T17:07:32.114Z,9.27
2018-03-31T17:09:59.960Z,4.40
2018-03-31T17:12:27.053Z,4.50
2018-03-31T17:14:54.171Z,4.47
2018-03-31T17:17:22.672Z,5.13
2018-03-31T17:19:50.512Z,6.37
2018-03-31T17:22:17.587Z,5.70
2018-03-31T17:24:45.606Z,4.53
2018-03-31T17:27:12.692Z,5.80
2018-03-31T17:29:40.148Z,5.13
2018-03-31T17:32:07.806Z,5.77
2018-03-31T17:34:34.886Z,6.10
2018-03-31T17:37:02.725Z,4.20
2018-03-31T17:39:30.019Z,7.73
2018-03-31T17:41:57.848Z,4.87
2018-03-31T17:44:24.920Z,5.73
2018-03-31T17:46:52.794Z,4.93
2018-03-31T17:49:21.486Z,5.77
2018-03-31T17:51:49.342Z,4.87
2018-03-31T17:54:16.422Z,6.80
2018-03-31T17:56:43.556Z,5.87
2018-03-31T17:59:10.644Z,5.03
2018-03-31T18:01:37.783Z,4.93
2018-03-31T18:04:04.932Z,5.97
2018-03-31T18:06:32.010Z,6.33
2018-03-31T18:08:59.615Z,6.30
2018-03-31T18:11:26.867Z,5.27
2018-03-31T18:13:53.949Z,4.87
2018-03-31T18:16:21.049Z,5.30
2018-03-31T18:18:48.146Z,7.97
2018-03-31T18:21:15.477Z,4.07
2018-03-31T18:23:42.565Z,6.60
2018-03-31T18:26:09.651Z,4.57
2018-03-31T18:28:36.751Z,5.03
2018-03-31T18:31:03.821Z,6.33
2018-03-31T18:33:30.930Z,5.80
2018-03-31T18:35:58.003Z,5.63
2018-03-31T18:38:25.861Z,3.73
2018-03-31T18:40:52.933Z,6.50
2018-03-31T18:43:20.012Z,5.03
2018-03-31T18:45:47.094Z,6.47
2018-03-31T18:48:14.955Z,5.07
2018-03-31T18:50:42.677Z,4.60
2018-03-31T18:53:09.754Z,6.10
2018-03-31T18:55:36.819Z,5.67
2018-03-31T18:58:03.906Z,6.07
2018-03-31T19:00:31.026Z,5.47
2018-03-31T19:02:58.127Z,5.97
2018-03-31T19:05:25.306Z,5.77
2018-03-31T19:07:52.371Z,6.17
2018-03-31T19:10:19.512Z,6.07
2018-03-31T19:12:46.628Z,5.20
2018-03-31T19:15:13.974Z,4.40
2018-03-31T19:17:41.896Z,5.43
2018-03-31T19:20:09.042Z,5.63
2018-03-31T19:22:36.130Z,6.67
2018-03-31T19:28:04.413Z,7.93
2018-03-31T19:30:37.394Z,6.27
2018-03-31T19:33:04.458Z,4.13
2018-03-31T19:35:37.233Z,5.10
2018-03-31T19:38:04.299Z,5.50
2018-03-31T19:40:32.261Z,5.07
2018-03-31T19:43:01.077Z,7.20
2018-03-31T19:45:28.157Z,4.93
2018-03-31T19:47:56.354Z,6.73
2018-03-31T19:50:24.104Z,5.10
2018-03-31T19:52:51.190Z,5.67
2018-03-31T19:55:18.287Z,6.27
2018-03-31T19:57:45.380Z,6.37
2018-03-31T20:00:12.802Z,5.80
2018-03-31T20:02:39.885Z,5.87
2018-03-31T20:05:07.217Z,7.10
2018-03-31T20:07:35.077Z,5.13
2018-03-31T20:10:02.927Z,6.10
2018-03-31T20:12:30.235Z,5.40
2018-03-31T20:14:57.315Z,6.77
2018-03-31T20:17:24.396Z,6.10
2018-03-31T20:19:52.318Z,9.27
2018-03-31T20:22:19.413Z,7.60
2018-03-31T20:24:47.271Z,5.90
2018-03-31T20:27:14.347Z,6.33
2018-03-31T20:29:42.455Z,4.77
2018-03-31T20:32:09.563Z,5.20
2018-03-31T20:34:36.690Z,5.03
2018-03-31T20:37:03.823Z,5.60
2018-03-31T20:39:30.896Z,6.27
2018-03-31T20:41:58.375Z,5.33
2018-03-31T20:44:25.458Z,5.03
2018-03-31T20:46:52.571Z,5.20
2018-03-31T20:49:19.667Z,5.40
2018-03-31T20:51:46.774Z,5.73
2018-03-31T20:54:14.300Z,5.87
2018-03-31T20:56:41.423Z,5.73
2018-03-31T20:59:08.499Z,5.67
2018-03-31T21:01:36.603Z,5.10
2018-03-31T21:04:03.691Z,5.97
2018-03-31T21:06:32.309Z,5.83
2018-03-31T21:08:59.417Z,4.60
2018-03-31T21:11:26.490Z,5.83
2018-03-31T21:13:53.603Z,5.03
2018-03-31T21:16:20.701Z,4.47
2018-03-31T21:18:47.795Z,6.10
2018-03-31T21:21:15.410Z,4.27
2018-03-31T21:23:42.484Z,4.73
2018-03-31T21:26:09.551Z,5.00
2018-03-31T21:28:36.650Z,4.63
2018-03-31T21:31:04.600Z,4.43
2018-03-31T21:33:31.679Z,5.07
2018-03-31T21:35:58.791Z,6.10
2018-03-31T21:38:25.911Z,3.73
2018-03-31T21:40:53.003Z,5.27
2018-03-31T21:43:20.191Z,4.10
2018-03-31T21:45:47.282Z,3.73
2018-03-31T21:48:14.351Z,4.33
2018-03-31T21:50:41.926Z,3.90
2018-03-31T21:53:09.018Z,4.37
2018-03-31T21:55:36.111Z,5.47
2018-03-31T21:58:03.174Z,4.47
2018-03-31T22:00:30.525Z,4.73
2018-03-31T22:02:57.602Z,3.50
2018-03-31T22:05:25.430Z,2.90
2018-03-31T22:07:52.851Z,4.63
2018-03-31T22:10:19.914Z,4.20
2018-03-31T22:12:47.058Z,4.93
2018-03-31T22:15:19.690Z,5.00
2018-03-31T22:17:46.819Z,4.07
2018-03-31T22:20:13.931Z,4.40
2018-03-31T22:22:41.030Z,4.47
2018-03-31T22:25:08.130Z,3.77
2018-03-31T22:27:35.203Z,3.73
2018-03-31T22:30:02.982Z,4.50
2018-03-31T22:32:30.060Z,6.00
2018-03-31T22:34:58.652Z,5.00
2018-03-31T22:37:26.311Z,6.40
2018-03-31T22:39:53.382Z,5.80
2018-03-31T22:42:21.230Z,5.00
2018-03-31T22:44:48.383Z,5.03
2018-03-31T22:47:16.147Z,4.90
2018-03-31T22:49:43.218Z,4.57
2018-03-31T22:52:11.076Z,5.20
2018-03-31T22:54:38.205Z,4.87
2018-03-31T22:57:05.315Z,5.17
2018-03-31T22:59:32.387Z,4.63
2018-03-31T23:01:59.462Z,4.97
2018-03-31T23:04:26.584Z,6.17
2018-03-31T23:06:54.496Z,6.30
2018-03-31T23:09:21.610Z,5.47
2018-03-31T23:11:48.705Z,5.77
2018-03-31T23:14:15.799Z,5.67
2018-03-31T23:16:43.302Z,6.83
2018-03-31T23:19:10.435Z,6.03
2018-03-31T23:21:37.502Z,5.60
2018-03-31T23:24:04.607Z,5.57
2018-03-31T23:26:31.720Z,5.60
2018-03-31T23:28:58.787Z,5.30
2018-03-31T23:31:26.804Z,5.77
2018-03-31T23:33:53.878Z,7.20
2018-03-31T23:36:20.963Z,5.77
2018-03-31T23:38:48.836Z,5.13
2018-03-31T23:41:16.696Z,5.97
2018-03-31T23:43:43.799Z,5.83
2018-03-31T23:46:10.878Z,6.10
2018-03-31T23:48:38.554Z,6.43
2018-03-31T23:51:05.626Z,6.10
2018-03-31T23:53:32.698Z,7.23
2018-03-31T23:55:59.794Z,6.70
2018-03-31T23:58:26.859Z,7.17
